createdAt,value
2018-11-02T00:01:33.017Z,1.40
2018-11-02T00:04:02.432Z,1.40
2018-11-02T00:06:32.985Z,1.40
2018-11-02T00:09:02.085Z,1.30
2018-11-02T00:11:30.941Z,1.30
2018-11-02T00:14:00.037Z,1.30
2018-11-02T00:16:28.792Z,1.20
2018-11-02T00:18:58.037Z,1.30
2018-11-02T00:21:27.313Z,1.30
2018-11-02T00:23:56.548Z,1.20
2018-11-02T00:26:26.240Z,1.10
2018-11-02T00:28:57.370Z,1.20
2018-11-02T00:31:26.995Z,1.20
2018-11-02T00:33:55.902Z,1.20
2018-11-02T00:36:25.057Z,1.10
2018-11-02T00:38:54.207Z,1.00
2018-11-02T00:41:23.417Z,1.00
2018-11-02T00:43:52.578Z,1.00
2018-11-02T00:46:21.502Z,1.00
2018-11-02T00:48:51.140Z,0.90
2018-11-02T00:51:21.580Z,0.90
2018-11-02T00:53:50.771Z,0.90
2018-11-02T00:56:20.152Z,0.80
2018-11-02T00:58:49.420Z,0.90
2018-11-02T01:01:19.264Z,0.80
2018-11-02T01:03:48.568Z,0.80
2018-11-02T01:06:17.830Z,0.80
2018-11-02T01:08:47.102Z,0.80
2018-11-02T01:11:16.261Z,0.80
2018-11-02T01:13:45.509Z,0.70
2018-11-02T01:16:14.460Z,0.70
2018-11-02T01:18:43.716Z,0.70
2018-11-02T01:21:13.028Z,0.70
2018-11-02T01:23:42.605Z,0.60
2018-11-02T01:26:11.669Z,0.60
2018-11-02T01:28:41.255Z,0.80
2018-11-02T01:31:10.684Z,0.70
2018-11-02T01:33:40.029Z,0.60
2018-11-02T01:36:10.011Z,0.60
2018-11-02T01:38:39.225Z,0.60
2018-11-02T01:41:08.632Z,0.60
2018-11-02T01:43:37.970Z,0.50
2018-11-02T01:46:07.346Z,0.60
2018-11-02T01:48:36.543Z,0.40
2018-11-02T01:51:05.551Z,0.40
2018-11-02T01:53:34.416Z,0.40
2018-11-02T01:56:03.786Z,0.40
2018-11-02T01:58:32.787Z,0.40
2018-11-02T02:01:01.843Z,0.40
2018-11-02T02:03:31.563Z,0.40
2018-11-02T02:06:00.837Z,0.40
2018-11-02T02:08:30.419Z,0.30
2018-11-02T02:10:59.801Z,0.30
2018-11-02T02:13:29.111Z,0.20
2018-11-02T02:15:58.578Z,0.30
2018-11-02T02:18:27.798Z,0.20
2018-11-02T02:20:56.658Z,0.20
2018-11-02T02:23:26.609Z,0.20
2018-11-02T02:25:55.700Z,0.10
2018-11-02T02:28:26.896Z,0.10
2018-11-02T02:30:56.279Z,0.10
2018-11-02T02:33:25.658Z,0.00
2018-11-02T02:35:54.798Z,0.00
2018-11-02T02:38:23.772Z,0.00
2018-11-02T02:40:52.770Z,0.00
2018-11-02T02:43:21.733Z,0.00
2018-11-02T02:45:50.694Z,0.10
2018-11-02T02:48:19.737Z,0.00
2018-11-02T02:50:48.732Z,0.00
2018-11-02T02:53:17.617Z,-0.10
2018-11-02T02:55:46.732Z,-0.10
2018-11-02T02:58:16.238Z,-0.10
2018-11-02T03:00:45.285Z,-0.10
2018-11-02T03:03:14.525Z,-0.10
2018-11-02T03:05:43.606Z,-0.10
2018-11-02T03:08:12.905Z,-0.10
2018-11-02T03:10:41.857Z,-0.20
2018-11-02T03:13:10.965Z,-0.20
2018-11-02T03:15:40.187Z,-0.20
2018-11-02T03:18:09.476Z,-0.20
2018-11-02T03:20:38.307Z,-0.20
2018-11-02T03:23:07.666Z,-0.20
2018-11-02T03:25:37.247Z,-0.20
2018-11-02T03:28:06.627Z,-0.20
2018-11-02T03:30:36.101Z,-0.10
2018-11-02T03:33:05.353Z,-0.20
2018-11-02T03:35:34.598Z,-0.20
2018-11-02T03:38:03.814Z,-0.20
2018-11-02T03:40:33.451Z,-0.20
2018-11-02T03:43:02.483Z,-0.20
2018-11-02T03:45:31.512Z,-0.20
2018-11-02T03:48:00.763Z,-0.20
2018-11-02T03:50:30.097Z,-0.20
2018-11-02T03:52:59.180Z,-0.30
2018-11-02T03:55:28.417Z,-0.20
2018-11-02T03:57:57.568Z,-0.30
2018-11-02T04:00:26.664Z,-0.30
2018-11-02T04:02:55.862Z,-0.30
2018-11-02T04:05:24.786Z,-0.30
2018-11-02T04:07:54.046Z,-0.40
2018-11-02T04:10:22.898Z,-0.50
2018-11-02T04:12:52.121Z,-0.30
2018-11-02T04:15:21.524Z,-0.40
2018-11-02T04:17:50.447Z,-0.40
2018-11-02T04:20:19.566Z,-0.40
2018-11-02T04:22:48.731Z,-0.50
2018-11-02T04:25:17.799Z,-0.40
2018-11-02T04:27:46.892Z,-0.50
2018-11-02T04:30:16.234Z,-0.50
2018-11-02T04:32:45.553Z,-0.60
2018-11-02T04:35:14.764Z,-0.60
2018-11-02T04:37:44.090Z,-0.60
2018-11-02T04:40:13.312Z,-0.50
2018-11-02T04:42:42.440Z,-0.60
2018-11-02T04:45:11.685Z,-0.60
2018-11-02T04:47:41.430Z,-0.70
2018-11-02T04:50:10.639Z,-0.70
2018-11-02T04:52:39.894Z,-0.70
2018-11-02T04:55:09.304Z,-0.70
2018-11-02T04:57:38.544Z,-0.70
2018-11-02T05:00:09.292Z,-0.80
2018-11-02T05:02:38.868Z,-0.70
2018-11-02T05:05:07.976Z,-0.70
2018-11-02T05:07:36.959Z,-0.70
2018-11-02T05:10:07.548Z,-0.40
2018-11-02T05:12:36.953Z,-0.10
2018-11-02T05:15:06.672Z,0.00
2018-11-02T05:17:36.199Z,-0.30
2018-11-02T05:20:06.245Z,-0.50
2018-11-02T05:22:35.378Z,-0.50
2018-11-02T05:25:04.580Z,-0.60
2018-11-02T05:27:33.382Z,-0.60
2018-11-02T05:30:02.449Z,-0.70
2018-11-02T05:32:32.029Z,-0.70
2018-11-02T05:35:01.140Z,-0.80
2018-11-02T05:37:30.000Z,-0.80
2018-11-02T05:39:59.096Z,-0.80
2018-11-02T05:42:28.621Z,-0.70
2018-11-02T05:44:57.877Z,-0.10
2018-11-02T05:47:27.000Z,0.00
2018-11-02T05:49:56.252Z,-0.10
2018-11-02T05:52:25.631Z,-0.10
2018-11-02T05:54:54.522Z,-0.30
2018-11-02T05:57:23.776Z,-0.50
2018-11-02T05:59:53.075Z,-0.50
2018-11-02T06:02:22.139Z,-0.50
2018-11-02T06:04:50.985Z,-0.50
2018-11-02T06:07:20.073Z,-0.50
2018-11-02T06:09:49.568Z,-0.60
2018-11-02T06:12:18.798Z,-0.60
2018-11-02T06:14:48.103Z,-0.60
2018-11-02T06:17:17.452Z,-0.60
2018-11-02T06:19:47.060Z,-0.60
2018-11-02T06:22:15.998Z,-0.60
2018-11-02T06:24:45.567Z,-0.70
2018-11-02T06:27:15.078Z,-0.60
2018-11-02T06:29:44.684Z,-0.70
2018-11-02T06:32:13.866Z,-0.70
2018-11-02T06:34:43.186Z,-0.60
2018-11-02T06:37:12.236Z,-0.70
2018-11-02T06:39:41.288Z,-0.70
2018-11-02T06:42:10.289Z,-0.80
2018-11-02T06:44:39.658Z,-0.80
2018-11-02T06:47:09.152Z,-0.80
2018-11-02T06:49:38.876Z,-0.80
2018-11-02T06:52:08.261Z,-0.80
2018-11-02T06:54:37.669Z,-0.80
2018-11-02T06:57:07.194Z,-0.80
2018-11-02T06:59:36.129Z,-0.90
2018-11-02T07:02:05.311Z,-0.80
2018-11-02T07:04:34.621Z,-0.90
2018-11-02T07:07:05.257Z,-0.80
2018-11-02T07:09:34.179Z,-0.80
2018-11-02T07:12:03.034Z,-0.80
2018-11-02T07:14:32.264Z,-0.80
2018-11-02T07:17:01.676Z,-0.90
2018-11-02T07:19:30.855Z,-0.80
2018-11-02T07:22:00.125Z,-0.90
2018-11-02T07:24:29.508Z,-0.80
2018-11-02T07:26:58.645Z,-0.80
2018-11-02T07:29:28.002Z,-0.70
2018-11-02T07:31:57.712Z,-0.80
2018-11-02T07:34:27.092Z,-0.70
2018-11-02T07:36:56.172Z,-0.70
2018-11-02T07:39:32.068Z,-0.70
2018-11-02T07:42:01.420Z,-0.70
2018-11-02T07:44:31.005Z,-0.60
2018-11-02T07:47:00.550Z,-0.60
2018-11-02T07:49:29.447Z,-0.60
2018-11-02T07:51:58.470Z,-0.50
2018-11-02T07:54:27.612Z,-0.50
2018-11-02T07:56:56.675Z,-0.40
2018-11-02T07:59:25.668Z,-0.40
2018-11-02T08:01:55.084Z,-0.20
2018-11-02T08:04:23.868Z,-0.20
2018-11-02T08:06:52.917Z,-0.20
2018-11-02T08:09:21.969Z,-0.20
2018-11-02T08:11:51.445Z,-0.20
2018-11-02T08:14:20.586Z,-0.10
2018-11-02T08:16:49.769Z,0.00
2018-11-02T08:19:18.760Z,0.10
2018-11-02T08:21:48.156Z,0.20
2018-11-02T08:24:17.226Z,0.30
2018-11-02T08:26:46.135Z,0.50
2018-11-02T08:29:15.314Z,0.50
2018-11-02T08:31:44.349Z,0.70
2018-11-02T08:34:13.266Z,0.80
2018-11-02T08:36:42.551Z,0.90
2018-11-02T08:39:12.637Z,0.90
2018-11-02T08:41:42.129Z,1.00
2018-11-02T08:44:11.376Z,1.20
2018-11-02T08:46:40.550Z,1.30
2018-11-02T08:49:09.529Z,1.40
2018-11-02T08:51:38.605Z,1.50
2018-11-02T08:54:07.547Z,1.70
2018-11-02T08:56:37.086Z,1.70
2018-11-02T08:59:06.233Z,1.90
2018-11-02T09:01:35.530Z,1.90
2018-11-02T09:04:04.873Z,2.50
2018-11-02T09:06:34.023Z,2.50
2018-11-02T09:09:03.230Z,2.50
2018-11-02T09:11:32.232Z,2.80
2018-11-02T09:14:01.586Z,2.80
2018-11-02T09:16:30.985Z,2.80
2018-11-02T09:19:00.680Z,2.80
2018-11-02T09:21:29.652Z,2.90
2018-11-02T09:23:58.419Z,3.00
2018-11-02T09:26:27.615Z,3.30
2018-11-02T09:28:57.237Z,3.60
2018-11-02T09:31:26.366Z,3.40
2018-11-02T09:33:55.493Z,3.50
2018-11-02T09:36:24.714Z,3.30
2018-11-02T09:38:54.188Z,3.50
2018-11-02T09:41:23.423Z,3.50
2018-11-02T09:43:52.429Z,3.80
2018-11-02T09:46:21.475Z,4.90
2018-11-02T09:48:50.226Z,5.00
2018-11-02T09:51:19.329Z,4.60
2018-11-02T09:53:48.597Z,4.90
2018-11-02T09:56:18.016Z,4.90
2018-11-02T09:58:47.321Z,4.80
2018-11-02T10:01:16.485Z,4.80
2018-11-02T10:03:45.964Z,5.00
2018-11-02T10:06:15.054Z,4.80
2018-11-02T10:08:44.141Z,5.10
2018-11-02T10:11:13.381Z,5.20
2018-11-02T10:13:42.675Z,5.20
2018-11-02T10:16:11.677Z,5.10
2018-11-02T10:18:40.606Z,5.20
2018-11-02T10:21:10.036Z,5.50
2018-11-02T10:23:39.397Z,5.40
2018-11-02T10:26:08.992Z,5.60
2018-11-02T10:28:38.306Z,5.70
2018-11-02T10:31:07.616Z,5.50
2018-11-02T10:33:37.004Z,5.60
2018-11-02T10:36:07.297Z,5.50
2018-11-02T10:38:36.449Z,5.60
2018-11-02T10:41:06.377Z,5.80
2018-11-02T10:43:35.780Z,5.90
2018-11-02T10:46:05.262Z,6.00
2018-11-02T10:48:34.457Z,6.00
2018-11-02T10:51:04.036Z,6.10
2018-11-02T10:53:33.037Z,6.00
2018-11-02T10:56:02.292Z,6.10
2018-11-02T10:58:31.572Z,6.20
2018-11-02T11:01:06.004Z,6.40
2018-11-02T11:03:34.889Z,6.70
2018-11-02T11:06:03.716Z,6.60
2018-11-02T11:08:32.818Z,6.50
2018-11-02T11:11:01.641Z,6.60
2018-11-02T11:13:31.195Z,6.60
2018-11-02T11:16:00.228Z,6.80
2018-11-02T11:18:29.432Z,7.00
2018-11-02T11:20:58.519Z,6.80
2018-11-02T11:23:27.612Z,6.80
2018-11-02T11:25:56.741Z,7.10
2018-11-02T11:28:29.406Z,7.10
2018-11-02T11:30:58.532Z,7.00
2018-11-02T11:33:27.794Z,7.10
2018-11-02T11:35:57.026Z,7.60
2018-11-02T11:38:26.248Z,7.40
2018-11-02T11:40:55.619Z,7.10
2018-11-02T11:43:25.172Z,7.50
2018-11-02T11:45:54.513Z,7.90
2018-11-02T11:48:23.839Z,7.80
2018-11-02T11:50:52.834Z,8.00
2018-11-02T11:53:22.212Z,7.90
2018-11-02T11:55:51.513Z,8.10
2018-11-02T11:58:20.939Z,7.90
2018-11-02T12:00:49.924Z,7.80
2018-11-02T12:03:18.943Z,7.90
2018-11-02T12:05:48.119Z,7.80
2018-11-02T12:08:17.442Z,7.70
2018-11-02T12:10:46.665Z,7.70
2018-11-02T12:13:15.898Z,7.80
2018-11-02T12:15:45.230Z,7.90
2018-11-02T12:18:14.462Z,8.20
2018-11-02T12:20:43.483Z,8.00
2018-11-02T12:23:12.747Z,7.80
2018-11-02T12:25:42.505Z,8.30
2018-11-02T12:28:12.225Z,8.30
2018-11-02T12:30:41.293Z,8.30
2018-11-02T12:33:10.211Z,8.30
2018-11-02T12:35:39.566Z,8.20
2018-11-02T12:38:09.015Z,8.30
2018-11-02T12:40:38.203Z,8.30
2018-11-02T12:43:08.053Z,8.10
2018-11-02T12:45:36.993Z,8.00
2018-11-02T12:48:06.230Z,8.00
2018-11-02T12:50:35.557Z,7.90
2018-11-02T12:53:04.849Z,8.20
2018-11-02T12:55:34.084Z,8.60
2018-11-02T12:58:03.410Z,8.40
2018-11-02T13:00:32.614Z,8.00
2018-11-02T13:03:02.185Z,8.00
2018-11-02T13:05:32.168Z,8.20
2018-11-02T13:08:01.424Z,8.40
2018-11-02T13:10:30.275Z,8.30
2018-11-02T13:12:59.562Z,8.60
2018-11-02T13:15:28.728Z,8.70
2018-11-02T13:17:57.647Z,8.70
2018-11-02T13:20:27.184Z,8.70
2018-11-02T13:22:56.266Z,8.60
2018-11-02T13:25:25.620Z,8.40
2018-11-02T13:27:54.764Z,8.50
2018-11-02T13:30:24.553Z,8.60
2018-11-02T13:32:53.820Z,8.80
2018-11-02T13:35:23.147Z,8.60
2018-11-02T13:37:52.450Z,8.50
2018-11-02T13:40:21.671Z,8.30
2018-11-02T13:42:51.058Z,8.20
2018-11-02T13:45:20.228Z,8.00
2018-11-02T13:47:49.854Z,8.00
2018-11-02T13:50:19.017Z,8.20
2018-11-02T13:52:48.380Z,8.60
2018-11-02T13:55:17.349Z,8.30
2018-11-02T13:57:46.618Z,8.40
2018-11-02T14:00:17.164Z,8.40
2018-11-02T14:02:46.379Z,8.50
2018-11-02T14:05:16.391Z,8.60
2018-11-02T14:07:45.813Z,8.40
2018-11-02T14:10:15.033Z,8.50
2018-11-02T14:12:43.898Z,8.50
2018-11-02T14:15:14.886Z,8.70
2018-11-02T14:17:44.299Z,9.00
2018-11-02T14:20:14.466Z,8.80
2018-11-02T14:22:43.747Z,8.80
2018-11-02T14:25:14.197Z,8.90
2018-11-02T14:27:43.448Z,9.00
2018-11-02T14:30:13.801Z,8.70
2018-11-02T14:32:42.670Z,8.30
2018-11-02T14:35:12.922Z,8.10
2018-11-02T14:37:42.292Z,8.30
2018-11-02T14:40:12.007Z,8.20
2018-11-02T14:42:41.687Z,7.90
2018-11-02T14:45:14.017Z,8.00
2018-11-02T14:47:43.644Z,8.10
2018-11-02T14:50:12.772Z,8.00
2018-11-02T14:52:42.242Z,7.80
2018-11-02T14:55:11.404Z,7.80
2018-11-02T14:57:40.628Z,7.70
2018-11-02T15:00:11.076Z,7.80
2018-11-02T15:02:40.850Z,7.90
2018-11-02T15:05:11.198Z,7.50
2018-11-02T15:07:40.733Z,7.50
2018-11-02T15:10:09.986Z,7.50
2018-11-02T15:12:40.393Z,8.10
2018-11-02T15:15:09.969Z,8.00
2018-11-02T15:17:39.358Z,7.60
2018-11-02T15:20:10.409Z,7.60
2018-11-02T15:22:39.495Z,7.60
2018-11-02T15:25:09.169Z,7.40
2018-11-02T15:27:38.466Z,7.40
2018-11-02T15:30:11.588Z,7.60
2018-11-02T15:32:40.655Z,7.30
2018-11-02T15:35:10.433Z,7.20
2018-11-02T15:37:49.396Z,7.00
2018-11-02T15:40:19.717Z,6.90
2018-11-02T15:42:48.745Z,6.90
2018-11-02T15:45:17.713Z,6.80
2018-11-02T15:47:46.879Z,6.70
2018-11-02T15:50:16.099Z,6.70
2018-11-02T15:52:45.167Z,6.70
2018-11-02T15:55:14.305Z,6.60
2018-11-02T15:57:43.495Z,6.60
2018-11-02T16:00:15.841Z,6.40
2018-11-02T16:02:45.992Z,6.30
2018-11-02T16:05:15.047Z,6.30
2018-11-02T16:07:44.280Z,6.20
2018-11-02T16:10:13.596Z,6.10
2018-11-02T16:12:43.416Z,6.00
2018-11-02T16:15:12.920Z,6.00
2018-11-02T16:17:42.459Z,6.00
2018-11-02T16:20:13.499Z,5.90
2018-11-02T16:22:42.584Z,5.90
2018-11-02T16:25:11.852Z,5.80
2018-11-02T16:27:40.831Z,5.60
2018-11-02T16:30:10.797Z,5.50
2018-11-02T16:32:39.992Z,5.40
2018-11-02T16:35:10.241Z,5.30
2018-11-02T16:37:39.852Z,5.20
2018-11-02T16:40:11.929Z,5.20
2018-11-02T16:42:41.121Z,5.00
2018-11-02T16:45:11.693Z,5.00
2018-11-02T16:47:41.416Z,4.80
2018-11-02T16:50:11.421Z,4.80
2018-11-02T16:52:40.908Z,4.70
2018-11-02T16:55:10.079Z,4.60
2018-11-02T16:57:39.910Z,4.60
2018-11-02T17:00:13.661Z,4.60
2018-11-02T17:02:43.131Z,4.40
2018-11-02T17:05:11.999Z,4.30
2018-11-02T17:07:41.851Z,4.30
2018-11-02T17:10:12.406Z,4.20
2018-11-02T17:12:42.467Z,4.10
2018-11-02T17:15:12.669Z,4.10
2018-11-02T17:17:44.721Z,4.10
2018-11-02T17:20:15.961Z,3.90
2018-11-02T17:22:45.456Z,3.90
2018-11-02T17:25:14.829Z,3.90
2018-11-02T17:27:43.746Z,3.80
2018-11-02T17:30:16.201Z,3.70
2018-11-02T17:32:45.419Z,3.60
2018-11-02T17:35:14.674Z,3.50
2018-11-02T17:37:43.860Z,3.50
2018-11-02T17:40:14.316Z,3.40
2018-11-02T17:42:43.996Z,3.40
2018-11-02T17:45:13.400Z,3.40
2018-11-02T17:47:43.120Z,3.30
2018-11-02T17:50:13.404Z,3.30
2018-11-02T17:52:42.778Z,3.30
2018-11-02T17:55:11.973Z,3.20
2018-11-02T17:57:41.160Z,3.10
2018-11-02T18:00:11.588Z,3.10
2018-11-02T18:02:40.823Z,3.00
2018-11-02T18:05:10.508Z,3.00
2018-11-02T18:07:39.717Z,3.00
2018-11-02T18:10:10.904Z,3.00
2018-11-02T18:12:40.719Z,2.90
2018-11-02T18:15:10.923Z,2.90
2018-11-02T18:17:39.691Z,2.80
2018-11-02T18:20:11.664Z,2.80
2018-11-02T18:22:40.744Z,2.70
2018-11-02T18:25:10.136Z,2.70
2018-11-02T18:27:39.504Z,2.70
2018-11-02T18:30:11.984Z,2.70
2018-11-02T18:32:41.272Z,2.70
2018-11-02T18:35:10.955Z,2.60
2018-11-02T18:37:41.072Z,2.60
2018-11-02T18:40:12.736Z,2.60
2018-11-02T18:42:42.492Z,2.50
2018-11-02T18:45:13.971Z,2.50
2018-11-02T18:47:46.990Z,2.50
2018-11-02T18:50:17.992Z,2.40
2018-11-02T18:52:47.615Z,2.30
2018-11-02T18:55:17.007Z,2.10
2018-11-02T18:57:46.409Z,2.20
2018-11-02T19:00:16.656Z,2.30
2018-11-02T19:02:46.005Z,2.20
2018-11-02T19:05:16.124Z,2.20
2018-11-02T19:07:45.620Z,2.20
2018-11-02T19:10:14.956Z,2.20
2018-11-02T19:12:44.514Z,2.20
2018-11-02T19:15:16.849Z,2.10
2018-11-02T19:17:46.000Z,2.10
2018-11-02T19:20:15.580Z,2.00
2018-11-02T19:22:45.155Z,2.00
2018-11-02T19:25:15.458Z,1.90
2018-11-02T19:27:45.113Z,1.90
2018-11-02T19:30:14.950Z,1.90
2018-11-02T19:32:44.503Z,1.90
2018-11-02T19:35:14.846Z,1.80
2018-11-02T19:37:44.269Z,1.80
2018-11-02T19:40:14.529Z,1.90
2018-11-02T19:42:43.602Z,1.80
2018-11-02T19:45:13.604Z,1.80
2018-11-02T19:47:48.412Z,1.70
2018-11-02T19:50:18.796Z,1.70
2018-11-02T19:52:48.813Z,1.60
2018-11-02T19:55:18.043Z,1.60
2018-11-02T19:57:47.359Z,1.60
2018-11-02T20:00:17.250Z,1.60
2018-11-02T20:02:46.819Z,1.60
2018-11-02T20:05:17.576Z,1.60
2018-11-02T20:07:46.939Z,1.50
2018-11-02T20:10:16.682Z,1.50
2018-11-02T20:12:46.608Z,1.60
2018-11-02T20:15:16.373Z,1.60
2018-11-02T20:17:45.504Z,1.40
2018-11-02T20:20:15.683Z,1.40
2018-11-02T20:22:45.077Z,1.30
2018-11-02T20:25:15.501Z,1.30
2018-11-02T20:27:44.660Z,1.20
2018-11-02T20:30:16.748Z,1.20
2018-11-02T20:32:45.747Z,1.20
2018-11-02T20:35:15.039Z,1.20
2018-11-02T20:37:44.848Z,1.10
2018-11-02T20:40:16.145Z,1.10
2018-11-02T20:42:45.741Z,1.20
2018-11-02T20:45:15.058Z,1.20
2018-11-02T20:47:53.978Z,1.10
2018-11-02T20:50:23.220Z,1.10
2018-11-02T20:52:52.813Z,1.10
2018-11-02T20:55:22.125Z,1.10
2018-11-02T20:57:51.163Z,1.00
2018-11-02T21:00:22.538Z,1.00
2018-11-02T21:02:52.100Z,1.00
2018-11-02T21:05:21.927Z,1.00
2018-11-02T21:07:51.548Z,1.00
2018-11-02T21:10:21.641Z,0.90
2018-11-02T21:12:50.972Z,0.90
2018-11-02T21:15:21.565Z,1.00
2018-11-02T21:17:51.204Z,1.00
2018-11-02T21:20:22.075Z,0.90
2018-11-02T21:22:51.375Z,0.80
2018-11-02T21:25:20.628Z,0.80
2018-11-02T21:27:49.995Z,0.70
2018-11-02T21:30:20.511Z,0.80
2018-11-02T21:32:50.154Z,0.80
2018-11-02T21:35:19.937Z,0.80
2018-11-02T21:37:49.577Z,0.80
2018-11-02T21:40:19.651Z,0.90
2018-11-02T21:42:48.676Z,1.00
2018-11-02T21:45:19.307Z,1.00
2018-11-02T21:47:48.489Z,1.10
2018-11-02T21:50:18.302Z,1.10
2018-11-02T21:52:48.049Z,1.20
2018-11-02T21:55:17.455Z,1.30
2018-11-02T21:57:46.469Z,1.30
2018-11-02T22:00:16.494Z,1.30
2018-11-02T22:02:46.068Z,1.30
2018-11-02T22:05:15.085Z,1.40
2018-11-02T22:07:45.242Z,1.40
2018-11-02T22:10:14.473Z,1.40
2018-11-02T22:12:43.606Z,1.40
2018-11-02T22:15:12.583Z,1.40
2018-11-02T22:17:41.883Z,1.40
2018-11-02T22:20:12.918Z,1.40
2018-11-02T22:22:42.286Z,1.50
2018-11-02T22:25:12.562Z,1.50
2018-11-02T22:27:41.716Z,1.60
2018-11-02T22:30:18.151Z,1.60
2018-11-02T22:32:47.139Z,1.60
2018-11-02T22:35:16.316Z,1.70
2018-11-02T22:37:45.878Z,1.70
2018-11-02T22:40:15.430Z,1.70
2018-11-02T22:42:44.756Z,1.80
2018-11-02T22:45:14.787Z,1.80
2018-11-02T22:47:49.097Z,1.80
2018-11-02T22:50:18.190Z,1.90
2018-11-02T22:52:47.581Z,1.90
2018-11-02T22:55:17.120Z,1.90
2018-11-02T22:57:46.709Z,2.00
2018-11-02T23:00:18.305Z,2.00
2018-11-02T23:02:48.378Z,2.10
2018-11-02T23:05:17.780Z,2.10
2018-11-02T23:07:47.596Z,2.10
2018-11-02T23:10:16.881Z,2.20
2018-11-02T23:12:45.795Z,2.20
2018-11-02T23:15:15.052Z,2.30
2018-11-02T23:17:44.275Z,2.30
2018-11-02T23:20:14.813Z,2.40
2018-11-02T23:22:43.737Z,2.40
2018-11-02T23:25:12.855Z,2.50
2018-11-02T23:27:43.579Z,2.50
2018-11-02T23:30:12.603Z,2.60
2018-11-02T23:32:41.768Z,2.70
2018-11-02T23:35:10.883Z,2.80
2018-11-02T23:37:40.281Z,2.90
2018-11-02T23:40:10.467Z,3.10
2018-11-02T23:42:39.832Z,3.30
2018-11-02T23:45:09.960Z,3.40
2018-11-02T23:47:39.366Z,3.60
2018-11-02T23:50:09.649Z,3.70
2018-11-02T23:52:38.773Z,3.80
2018-11-02T23:55:08.224Z,3.80
2018-11-02T23:57:37.834Z,3.90
